Time;durP1;ratioP1;P1;durP2;ratioP2;P2;SDS_P1;SDS_P2;PMS_P1;PMS_P2;Temp;Humidity;BMP_temperature;BMP_pressure;BME280_temperature;BME280_humidity;BME280_pressure;Samples;Min_cycle;Max_cycle;Signal;HPM_P1;HPM_P2
2021/09/03 00:01:08;;;;;;;17.57;10.00;;;;;;;11.69;80.38;97902.77;1801307;79;28201;-83
2021/09/03 00:03:35;;;;;;;15.65;9.93;;;;;;;11.71;80.50;97906.06;1800280;79;25667;-80
2021/09/03 00:06:01;;;;;;;20.40;10.32;;;;;;;11.70;80.45;97896.84;1752138;81;25769;-83
2021/09/03 00:08:28;;;;;;;20.57;10.63;;;;;;;11.68;80.38;97903.80;1795764;79;25757;-84
2021/09/03 00:10:55;;;;;;;14.55;9.20;;;;;;;11.63;80.31;97902.22;1776791;78;25732;-83
2021/09/03 00:13:22;;;;;;;18.92;9.93;;;;;;;11.61;80.29;97900.23;1792339;79;27260;-83
2021/09/03 00:15:49;;;;;;;16.55;9.53;;;;;;;11.58;80.23;97897.97;1794226;79;26518;-83
2021/09/03 00:18:16;;;;;;;16.05;9.18;;;;;;;11.53;80.16;97895.03;1773428;78;25756;-83
2021/09/03 00:20:42;;;;;;;16.65;9.15;;;;;;;11.49;80.06;97901.88;1795780;79;25369;-82
2021/09/03 00:23:09;;;;;;;14.10;9.33;;;;;;;11.46;79.89;97904.50;1762334;80;25721;-82
2021/09/03 00:25:35;;;;;;;12.07;8.98;;;;;;;11.37;79.81;97900.81;1795644;79;28549;-83
2021/09/03 00:28:02;;;;;;;13.68;8.85;;;;;;;11.35;79.95;97904.27;1762213;81;25898;-83
2021/09/03 00:30:29;;;;;;;15.85;9.60;;;;;;;11.29;79.86;97901.84;1795590;79;25303;-83
2021/09/03 00:32:55;;;;;;;18.32;9.60;;;;;;;11.26;79.94;97896.84;1762249;81;25667;-81
2021/09/03 00:35:22;;;;;;;12.60;8.95;;;;;;;11.26;79.97;97899.54;1795445;79;25760;-84
2021/09/03 00:37:49;;;;;;;16.10;10.40;;;;;;;11.25;79.94;97897.03;1764577;78;28277;-82
2021/09/03 00:40:15;;;;;;;14.78;8.65;;;;;;;11.19;79.99;97898.19;1781093;79;26131;-84
2021/09/03 00:42:42;;;;;;;12.63;8.73;;;;;;;11.20;80.01;97889.56;1795561;79;25775;-83
2021/09/03 00:45:09;;;;;;;11.48;8.30;;;;;;;11.18;79.91;97888.92;1794512;79;25441;-83
2021/09/03 00:47:36;;;;;;;15.10;8.75;;;;;;;11.12;79.81;97885.16;1792353;78;25889;-84
2021/09/03 00:50:05;;;;;;;11.75;8.25;;;;;;;11.10;79.80;97889.95;1774778;79;28223;-84
2021/09/03 00:52:33;;;;;;;16.30;8.88;;;;;;;11.05;79.75;97892.41;1795524;79;26421;-84
2021/09/03 00:55:00;;;;;;;11.97;8.50;;;;;;;10.97;79.62;97884.50;1793921;79;25839;-84
2021/09/03 00:57:27;;;;;;;14.15;7.80;;;;;;;10.91;79.67;97889.34;1795354;78;25866;-84
2021/09/03 00:59:55;;;;;;;11.50;7.62;;;;;;;10.88;79.75;97885.69;1795657;79;25694;-84
2021/09/03 01:02:23;;;;;;;10.98;7.87;;;;;;;10.84;79.60;97884.45;1762249;81;27349;-84
2021/09/03 01:04:51;;;;;;;13.70;8.58;;;;;;;10.76;79.67;97892.70;1795423;79;25721;-85
2021/09/03 01:07:17;;;;;;;13.68;8.05;;;;;;;10.77;79.76;97891.66;1762246;81;25777;-84
2021/09/03 01:09:44;;;;;;;12.68;8.33;;;;;;;10.76;79.79;97887.30;1795728;79;25791;-85
2021/09/03 01:12:10;;;;;;;13.88;8.68;;;;;;;10.75;79.81;97882.92;1762295;81;25679;-85
2021/09/03 01:14:37;;;;;;;15.03;8.40;;;;;;;10.70;79.79;97886.77;1795369;78;28012;-85
2021/09/03 01:17:04;;;;;;;13.05;9.13;;;;;;;10.69;79.82;97878.34;1795032;78;25963;-85
2021/09/03 01:19:31;;;;;;;14.28;8.65;;;;;;;10.65;79.74;97874.37;1795701;79;25792;-85
2021/09/03 01:21:58;;;;;;;13.15;8.93;;;;;;;10.59;79.81;97877.88;1762276;81;26264;-84
2021/09/03 01:24:25;;;;;;;11.95;8.13;;;;;;;10.59;79.93;97872.48;1777118;79;25732;-81
2021/09/03 01:26:51;;;;;;;11.97;8.58;;;;;;;10.51;79.93;97878.86;1791911;79;26997;-82
2021/09/03 01:29:18;;;;;;;13.80;8.25;;;;;;;10.55;80.06;97877.95;1774256;79;25867;-84
2021/09/03 01:31:45;;;;;;;12.30;8.13;;;;;;;10.50;80.00;97875.04;1762273;80;25741;-84
2021/09/03 01:34:13;;;;;;;12.73;8.00;;;;;;;10.48;79.99;97873.89;1775975;79;25768;-86
2021/09/03 01:36:40;;;;;;;12.55;8.55;;;;;;;10.42;79.87;97869.27;1770385;79;25744;-86
2021/09/03 01:39:06;;;;;;;12.35;8.00;;;;;;;10.35;79.97;97868.41;1762489;81;27511;-85
2021/09/03 01:41:33;;;;;;;12.82;8.53;;;;;;;10.33;80.06;97879.40;1792060;79;26332;-85
2021/09/03 01:43:59;;;;;;;18.55;8.73;;;;;;;10.24;79.94;97870.31;1776651;79;25753;-84
2021/09/03 01:46:26;;;;;;;14.87;9.75;;;;;;;10.16;80.09;97870.41;1795280;79;25781;-82
2021/09/03 01:48:52;;;;;;;13.25;9.48;;;;;;;10.12;80.45;97871.34;1773885;79;25739;-86
2021/09/03 01:51:19;;;;;;;14.58;8.18;;;;;;;10.18;80.61;97871.92;1775919;79;27347;-85
2021/09/03 01:53:46;;;;;;;15.15;8.90;;;;;;;10.23;80.56;97861.90;1785862;79;26044;-84
2021/09/03 01:56:12;;;;;;;12.00;7.85;;;;;;;10.24;80.48;97865.75;1764056;79;25793;-83
2021/09/03 01:58:39;;;;;;;14.07;7.62;;;;;;;10.24;80.35;97853.61;1768363;79;25763;-85
2021/09/03 02:01:05;;;;;;;12.70;8.95;;;;;;;10.20;80.29;97854.20;1762305;80;25662;-85
2021/09/03 02:03:32;;;;;;;13.40;8.53;;;;;;;10.22;80.37;97856.19;1773619;79;28267;-85
2021/09/03 02:05:58;;;;;;;14.93;8.48;;;;;;;10.21;80.19;97849.95;1787771;79;25688;-85
2021/09/03 02:08:25;;;;;;;13.18;8.83;;;;;;;10.15;80.26;97849.34;1823202;77;26314;-86
2021/09/03 02:10:52;;;;;;;15.80;9.10;;;;;;;10.14;80.30;97846.36;1811053;77;25698;-86
2021/09/03 02:13:19;;;;;;;13.58;9.08;;;;;;;10.15;80.35;97843.95;1829085;77;25827;-85
2021/09/03 02:15:47;;;;;;;9.80;7.33;;;;;;;10.16;80.36;97850.19;1815437;77;27462;-86
2021/09/03 02:18:13;;;;;;;11.85;8.63;;;;;;;10.12;80.30;97837.63;1811115;77;25711;-83
2021/09/03 02:20:40;;;;;;;12.75;7.53;;;;;;;10.13;80.32;97843.34;1837052;77;25253;-86
2021/09/03 02:23:07;;;;;;;15.93;8.30;;;;;;;10.13;80.33;97837.95;1831730;77;25758;-86
2021/09/03 02:25:33;;;;;;;12.35;7.87;;;;;;;10.13;80.27;97831.72;1811311;77;25682;-85
2021/09/03 02:28:00;;;;;;;15.55;8.55;;;;;;;10.07;80.29;97835.52;1844283;77;27414;-84
2021/09/03 02:30:27;;;;;;;12.47;8.05;;;;;;;10.01;80.30;97824.70;1844359;77;25743;-85
2021/09/03 02:32:53;;;;;;;15.00;8.45;;;;;;;9.92;80.36;97828.04;1844203;77;25766;-86
2021/09/03 02:35:20;;;;;;;13.78;8.80;;;;;;;9.90;80.45;97823.90;1828824;77;26442;-85
2021/09/03 02:37:47;;;;;;;19.07;8.65;;;;;;;9.82;80.48;97824.86;1834433;77;25826;-82
2021/09/03 02:40:13;;;;;;;15.90;9.25;;;;;;;9.76;80.47;97832.40;1823633;77;26972;-85
2021/09/03 02:42:40;;;;;;;16.32;9.08;;;;;;;9.73;80.66;97832.27;1844342;77;25697;-84
2021/09/03 02:45:07;;;;;;;16.40;8.60;;;;;;;9.71;80.63;97823.54;1844335;77;25274;-86
2021/09/03 02:47:35;;;;;;;12.05;8.18;;;;;;;9.65;80.66;97813.55;1824572;77;25741;-85
2021/09/03 02:50:03;;;;;;;16.50;9.10;;;;;;;9.67;80.83;97814.16;1841429;77;25653;-84
2021/09/03 02:52:30;;;;;;;13.22;8.20;;;;;;;9.71;80.84;97814.11;1826920;77;28249;-86
2021/09/03 02:54:56;;;;;;;14.40;8.65;;;;;;;9.74;80.77;97812.38;1815217;77;25665;-86
2021/09/03 02:57:23;;;;;;;18.25;8.00;;;;;;;9.70;80.49;97807.05;1844300;77;26468;-86
2021/09/03 02:59:50;;;;;;;12.78;8.15;;;;;;;9.57;80.31;97804.75;1821028;77;26114;-84
2021/09/03 03:02:16;;;;;;;13.20;8.75;;;;;;;9.51;80.50;97797.47;1844289;77;25791;-81
2021/09/03 03:04:43;;;;;;;13.13;8.43;;;;;;;9.54;80.72;97799.23;1819561;77;27330;-86
2021/09/03 03:07:09;;;;;;;13.05;7.80;;;;;;;9.58;80.70;97792.95;1805841;77;26524;-86
2021/09/03 03:09:36;;;;;;;13.83;8.43;;;;;;;9.56;80.62;97795.84;1814260;77;26307;-86
2021/09/03 03:12:03;;;;;;;15.20;8.75;;;;;;;9.59;80.69;97792.76;1827055;77;25650;-87
2021/09/03 03:14:33;;;;;;;15.25;7.85;;;;;;;9.61;80.58;97792.05;1816587;77;25715;-87
2021/09/03 03:17:01;;;;;;;12.47;8.40;;;;;;;9.60;80.47;97789.03;1802812;77;27369;-86
2021/09/03 03:19:29;;;;;;;12.68;7.72;;;;;;;9.56;80.38;97789.09;1813912;77;25794;-87
2021/09/03 03:21:57;;;;;;;11.93;8.05;;;;;;;9.52;80.29;97790.54;1840906;77;25671;-87
2021/09/03 03:24:24;;;;;;;12.15;8.00;;;;;;;9.50;80.32;97791.24;1840994;77;26376;-86
2021/09/03 03:26:51;;;;;;;16.85;8.10;;;;;;;9.43;80.24;97795.72;1840942;77;25790;-86
2021/09/03 03:29:17;;;;;;;15.95;8.85;;;;;;;9.39;80.39;97793.13;1828385;77;28774;-86
2021/09/03 03:31:44;;;;;;;12.00;8.33;;;;;;;9.36;80.46;97796.20;1811859;77;25695;-87
2021/09/03 03:34:10;;;;;;;15.15;7.95;;;;;;;9.30;80.32;97792.91;1840851;77;25229;-86
2021/09/03 03:36:38;;;;;;;11.80;8.15;;;;;;;9.19;80.34;97794.27;1826962;77;26166;-86
2021/09/03 03:39:06;;;;;;;14.23;8.15;;;;;;;9.12;80.50;97791.20;1793793;77;25798;-87
2021/09/03 03:41:33;;;;;;;12.53;8.05;;;;;;;9.07;80.71;97793.13;1804029;77;27367;-87
2021/09/03 03:43:59;;;;;;;18.23;8.60;;;;;;;9.05;80.87;97790.33;1815997;77;25894;-87
2021/09/03 03:46:26;;;;;;;14.05;9.00;;;;;;;9.03;80.95;97787.30;1826892;77;25766;-87
2021/09/03 03:48:53;;;;;;;13.28;7.83;;;;;;;9.03;81.10;97795.39;1814419;77;25540;-86
2021/09/03 03:51:20;;;;;;;14.55;8.95;;;;;;;9.06;81.23;97789.30;1840778;77;26337;-83
2021/09/03 03:53:47;;;;;;;12.23;8.30;;;;;;;9.09;81.30;97790.23;1841131;77;28202;-86
2021/09/03 03:56:13;;;;;;;12.75;7.53;;;;;;;9.11;81.35;97789.54;1840821;77;25980;-85
2021/09/03 03:58:40;;;;;;;11.15;8.35;;;;;;;9.14;81.29;97790.51;1840979;77;25694;-87
2021/09/03 04:01:06;;;;;;;18.55;8.83;;;;;;;9.14;81.21;97793.20;1840971;77;25742;-84
2021/09/03 04:03:33;;;;;;;15.00;8.03;;;;;;;9.18;81.20;97794.46;1840902;77;25339;-86
2021/09/03 04:05:59;;;;;;;13.22;8.43;;;;;;;9.18;81.12;97793.11;1826662;77;27254;-85
2021/09/03 04:08:26;;;;;;;17.12;8.98;;;;;;;9.15;81.04;97786.79;1811191;77;25826;-82
2021/09/03 04:10:53;;;;;;;15.00;8.93;;;;;;;9.13;81.07;97784.80;1824324;77;25740;-86
2021/09/03 04:13:20;;;;;;;15.75;7.87;;;;;;;9.15;81.21;97792.17;1844596;77;25790;-85
2021/09/03 04:15:46;;;;;;;11.45;8.13;;;;;;;9.19;81.29;97785.36;1825724;77;25746;-87
2021/09/03 04:18:13;;;;;;;12.88;8.23;;;;;;;9.21;81.29;97786.00;1811311;77;27353;-84
2021/09/03 04:20:40;;;;;;;11.95;8.50;;;;;;;9.23;81.32;97776.70;1818463;77;25789;-88
2021/09/03 04:23:09;;;;;;;16.62;8.75;;;;;;;9.24;81.37;97784.28;1836920;77;25631;-85
2021/09/03 04:25:35;;;;;;;19.75;9.28;;;;;;;9.29;81.39;97781.34;1844467;77;25742;-85
2021/09/03 04:28:02;;;;;;;14.33;8.90;;;;;;;9.35;81.39;97782.41;1844545;77;25763;-86
2021/09/03 04:30:29;;;;;;;14.73;8.48;;;;;;;9.37;81.33;97784.39;1819102;77;27350;-86
2021/09/03 04:32:56;;;;;;;11.97;8.90;;;;;;;9.37;81.31;97780.35;1840134;77;25710;-86
2021/09/03 04:35:23;;;;;;;13.93;8.93;;;;;;;9.42;81.42;97783.83;1828520;77;25760;-82
2021/09/03 04:37:51;;;;;;;16.32;9.23;;;;;;;9.46;81.46;97783.73;1834715;77;25774;-86
2021/09/03 04:40:19;;;;;;;15.32;9.60;;;;;;;9.49;81.53;97781.48;1824631;77;25789;-86
2021/09/03 04:42:46;;;;;;;19.67;8.98;;;;;;;9.53;81.55;97784.64;1821046;77;28116;-86
2021/09/03 04:45:14;;;;;;;17.30;11.08;;;;;;;9.56;81.54;97786.91;1833411;77;25734;-87
2021/09/03 04:47:41;;;;;;;24.95;13.32;;;;;;;9.60;81.58;97787.69;1811222;77;25802;-87
2021/09/03 04:50:12;;;;;;;17.77;11.80;;;;;;;9.61;81.64;97783.97;1816335;77;26370;-83
2021/09/03 04:52:39;;;;;;;24.47;13.25;;;;;;;9.65;81.69;97789.81;1828005;77;26564;-82
2021/09/03 04:55:07;;;;;;;22.20;13.13;;;;;;;9.68;81.71;97779.45;1844345;77;27527;-85
2021/09/03 04:57:43;;;;;;;21.62;12.58;;;;;;;9.73;81.74;97785.09;1827516;77;26394;-86
2021/09/03 05:00:12;;;;;;;27.87;12.18;;;;;;;9.78;81.81;97783.68;1817329;77;25761;-86
2021/09/03 05:02:39;;;;;;;17.90;10.30;;;;;;;9.83;81.86;97778.00;1844499;77;25702;-80
2021/09/03 05:05:07;;;;;;;28.42;11.60;;;;;;;9.85;81.91;97777.80;1816920;77;25790;-85
2021/09/03 05:07:34;;;;;;;18.37;11.15;;;;;;;9.89;81.93;97772.34;1813774;77;28311;-87
2021/09/03 05:10:01;;;;;;;22.07;12.82;;;;;;;9.93;81.94;97770.38;1805961;77;25691;-85
2021/09/03 05:12:28;;;;;;;20.62;11.57;;;;;;;9.95;81.93;97770.19;1810003;77;25767;-85
2021/09/03 05:14:54;;;;;;;22.52;13.50;;;;;;;9.96;81.92;97775.90;1840878;77;25730;-86
2021/09/03 05:17:22;;;;;;;21.00;12.23;;;;;;;9.99;82.03;97776.34;1795836;77;25807;-82
2021/09/03 05:19:49;;;;;;;20.97;12.88;;;;;;;10.02;82.05;97771.08;1820558;77;28468;-83
2021/09/03 05:22:16;;;;;;;27.17;14.33;;;;;;;10.09;82.14;97776.81;1807639;77;26206;-86
2021/09/03 05:24:43;;;;;;;20.23;13.13;;;;;;;10.15;82.07;97776.52;1814390;77;25817;-82
2021/09/03 05:27:09;;;;;;;25.88;12.95;;;;;;;10.21;82.09;97766.83;1819503;77;25727;-86
2021/09/03 05:29:36;;;;;;;24.50;13.85;;;;;;;10.25;82.10;97766.25;1839872;77;25795;-86
2021/09/03 05:32:03;;;;;;;26.62;13.55;;;;;;;10.31;82.11;97769.99;1839459;77;27406;-85
2021/09/03 05:34:30;;;;;;;26.77;15.68;;;;;;;10.37;82.12;97770.04;1762375;80;25751;-86
2021/09/03 05:36:56;;;;;;;23.00;14.00;;;;;;;10.42;82.14;97764.02;1801107;79;25674;-85
2021/09/03 05:39:23;;;;;;;30.02;17.82;;;;;;;10.47;82.08;97769.66;1801353;79;26397;-86
2021/09/03 05:41:49;;;;;;;33.63;19.57;;;;;;;10.51;82.10;97767.36;1792235;79;25724;-86
2021/09/03 05:44:16;;;;;;;38.05;17.62;;;;;;;10.57;82.07;97766.56;1787066;79;27412;-86
2021/09/03 05:46:43;;;;;;;23.10;13.88;;;;;;;10.60;82.08;97763.47;1801251;79;25820;-85
2021/09/03 05:49:09;;;;;;;28.23;14.83;;;;;;;10.62;82.10;97762.76;1801257;79;25791;-86
2021/09/03 05:51:36;;;;;;;23.52;15.10;;;;;;;10.63;82.07;97767.09;1800938;79;26237;-87
2021/09/03 05:54:07;;;;;;;25.92;14.53;;;;;;;10.67;82.13;97772.41;1801095;79;25915;-87
2021/09/03 05:56:31;;;;;;;24.18;15.05;;;;;;;10.70;82.17;97769.31;1800439;79;27381;-86
2021/09/03 05:58:58;;;;;;;25.10;15.40;;;;;;;10.72;82.14;97767.25;1791281;79;25930;-87
2021/09/03 06:01:24;;;;;;;25.88;15.35;;;;;;;10.73;82.12;97757.59;1787888;79;25756;-86
2021/09/03 06:03:51;;;;;;;29.35;16.12;;;;;;;10.78;82.22;97761.02;1801206;79;25681;-84
2021/09/03 06:06:17;;;;;;;23.45;15.10;;;;;;;10.84;82.28;97762.92;1798993;79;25764;-86
2021/09/03 06:08:44;;;;;;;21.68;13.98;;;;;;;10.87;82.25;97761.69;1795394;78;28218;-85
2021/09/03 06:11:11;;;;;;;22.73;14.78;;;;;;;10.93;82.34;97759.50;1795592;79;25281;-82
2021/09/03 06:13:37;;;;;;;22.77;14.87;;;;;;;11.00;82.44;97758.47;1795372;78;25656;-84
2021/09/03 06:16:04;;;;;;;20.72;14.00;;;;;;;11.08;82.55;97756.94;1785719;79;26222;-85
2021/09/03 06:18:31;;;;;;;22.80;14.20;;;;;;;11.14;82.65;97758.80;1783517;78;25739;-86
2021/09/03 06:20:57;;;;;;;24.40;14.15;;;;;;;11.25;82.76;97748.41;1773407;79;27266;-85
2021/09/03 06:23:24;;;;;;;22.32;13.00;;;;;;;11.38;82.87;97751.12;1795223;78;25650;-85
2021/09/03 06:25:51;;;;;;;21.35;13.03;;;;;;;11.47;82.80;97754.75;1795423;79;25669;-84
2021/09/03 06:28:17;;;;;;;22.02;11.83;;;;;;;11.57;82.78;97759.77;1795307;78;25772;-84
2021/09/03 06:30:44;;;;;;;22.52;13.18;;;;;;;11.65;82.83;97754.13;1773277;79;25216;-84
2021/09/03 06:33:10;;;;;;;20.37;13.35;;;;;;;11.74;82.84;97751.51;1795492;78;27345;-80
2021/09/03 06:35:37;;;;;;;19.52;13.38;;;;;;;11.85;82.86;97750.06;1774440;79;25717;-82
2021/09/03 06:38:03;;;;;;;21.60;14.03;;;;;;;11.98;82.99;97749.20;1772468;78;25725;-82
2021/09/03 06:40:30;;;;;;;23.42;13.13;;;;;;;12.11;82.99;97739.70;1777215;79;25374;-82
2021/09/03 06:42:57;;;;;;;21.23;14.07;;;;;;;12.22;83.01;97738.52;1786000;78;25712;-82
2021/09/03 06:45:23;;;;;;;21.17;13.58;;;;;;;12.35;83.09;97738.16;1771848;79;28322;-82
2021/09/03 06:47:50;;;;;;;20.43;13.00;;;;;;;12.46;83.11;97733.42;1768830;78;25705;-82
2021/09/03 06:50:18;;;;;;;20.65;13.45;;;;;;;12.57;83.12;97733.58;1776619;78;25825;-82
2021/09/03 06:52:45;;;;;;;20.00;13.45;;;;;;;12.68;83.17;97728.55;1795099;78;25594;-82
2021/09/03 06:55:11;;;;;;;17.70;12.37;;;;;;;12.81;83.01;97733.86;1795885;79;25231;-81
2021/09/03 06:57:42;;;;;;;18.40;13.08;;;;;;;12.92;82.94;97733.20;1795519;78;28246;-82
2021/09/03 07:00:10;;;;;;;24.02;12.70;;;;;;;13.05;82.86;97732.25;1795602;79;25733;-83
2021/09/03 07:02:40;;;;;;;16.02;10.75;;;;;;;13.17;82.83;97732.72;1763796;78;25294;-82
2021/09/03 07:05:09;;;;;;;18.12;9.45;;;;;;;13.31;82.63;97732.92;1793159;79;26068;-83
2021/09/03 07:07:36;;;;;;;13.80;9.13;;;;;;;13.48;82.48;97728.31;1789586;77;25797;-82
2021/09/03 07:10:02;;;;;;;15.03;9.68;;;;;;;13.63;82.16;97729.64;1776351;77;27402;-82
2021/09/03 07:12:29;;;;;;;13.65;8.53;;;;;;;13.77;81.84;97727.61;1783662;78;25697;-82
2021/09/03 07:14:56;;;;;;;14.03;8.33;;;;;;;13.91;81.79;97722.36;1801558;77;25751;-82
2021/09/03 07:17:23;;;;;;;13.03;9.15;;;;;;;14.08;81.54;97723.13;1801179;77;25918;-83
2021/09/03 07:19:51;;;;;;;13.08;8.38;;;;;;;14.21;81.24;97717.03;1801354;78;26363;-84
2021/09/03 07:22:23;;;;;;;14.38;8.18;;;;;;;14.34;81.22;97716.05;1790570;78;27365;-82
2021/09/03 07:24:52;;;;;;;14.07;8.93;;;;;;;14.50;81.11;97711.88;1789003;77;25763;-85
2021/09/03 07:27:21;;;;;;;15.23;9.40;;;;;;;14.64;80.79;97708.77;1778975;79;25755;-85
2021/09/03 07:29:48;;;;;;;13.95;8.95;;;;;;;14.81;80.69;97708.97;1801499;79;25901;-84
2021/09/03 07:32:14;;;;;;;13.05;8.73;;;;;;;15.02;80.50;97713.05;1800221;79;25699;-84
2021/09/03 07:34:41;;;;;;;12.58;8.53;;;;;;;15.24;80.24;97706.53;1787970;78;27344;-84
2021/09/03 07:37:08;;;;;;;11.88;8.38;;;;;;;15.50;80.15;97705.57;1785914;79;25663;-83
2021/09/03 07:39:34;;;;;;;15.18;8.95;;;;;;;15.80;79.62;97695.98;1800387;79;25832;-83
2021/09/03 07:42:01;;;;;;;12.75;8.33;;;;;;;16.18;79.50;97699.52;1800444;79;25825;-83
2021/09/03 07:44:27;;;;;;;15.05;7.78;;;;;;;16.58;79.39;97699.53;1800411;79;25726;-81
2021/09/03 07:46:54;;;;;;;11.63;8.13;;;;;;;16.99;79.04;97703.08;1800382;79;27559;-82
2021/09/03 07:49:21;;;;;;;14.18;8.68;;;;;;;17.34;78.04;97698.78;1800171;79;25833;-82
2021/09/03 07:51:47;;;;;;;9.00;7.17;;;;;;;17.61;76.90;97697.59;1800509;79;25660;-81
2021/09/03 07:54:14;;;;;;;15.58;8.73;;;;;;;17.94;76.83;97693.47;1801178;79;26234;-82
2021/09/03 07:56:40;;;;;;;9.20;6.97;;;;;;;18.33;76.43;97683.35;1801205;79;25661;-82
2021/09/03 07:59:07;;;;;;;9.28;6.85;;;;;;;18.64;76.01;97681.00;1801462;79;27428;-82
2021/09/03 08:01:33;;;;;;;15.08;6.67;;;;;;;19.00;75.67;97676.73;1778930;79;25963;-83
2021/09/03 08:04:00;;;;;;;10.30;7.03;;;;;;;19.36;75.25;97684.19;1801407;79;26514;-82
2021/09/03 08:06:27;;;;;;;11.05;7.12;;;;;;;19.70;74.36;97678.45;1801373;79;25666;-82
2021/09/03 08:08:53;;;;;;;9.43;7.00;;;;;;;19.92;73.25;97676.98;1801574;79;25184;-83
2021/09/03 08:11:20;;;;;;;11.48;7.30;;;;;;;20.13;72.68;97672.72;1800373;79;27428;-83
2021/09/03 08:13:46;;;;;;;10.65;6.45;;;;;;;20.40;72.02;97670.41;1801189;79;26064;-82
2021/09/03 08:16:13;;;;;;;9.33;6.20;;;;;;;20.56;71.32;97674.02;1801635;79;25669;-82
2021/09/03 08:18:39;;;;;;;9.18;5.90;;;;;;;20.75;71.00;97672.45;1801395;79;25744;-83
2021/09/03 08:21:06;;;;;;;9.90;6.30;;;;;;;20.96;69.50;97664.54;1801442;79;25682;-83
2021/09/03 08:23:34;;;;;;;9.73;6.05;;;;;;;20.96;69.50;97664.54;1801293;79;28178;-82
2021/09/03 08:26:01;;;;;;;8.00;5.35;;;;;;;21.34;68.93;97663.80;1801326;79;25922;-83
2021/09/03 08:28:27;;;;;;;9.45;6.20;;;;;;;21.64;68.47;97635.48;1801530;79;25771;-82
2021/09/03 08:30:54;;;;;;;9.93;6.33;;;;;;;22.17;67.68;97660.97;1799171;79;25737;-83
2021/09/03 08:33:21;;;;;;;7.70;5.83;;;;;;;22.42;67.09;97655.11;1781561;78;25685;-84
2021/09/03 08:35:47;;;;;;;8.78;5.97;;;;;;;22.19;66.22;97654.64;1801473;79;28146;-82
2021/09/03 08:38:14;;;;;;;6.55;5.40;;;;;;;22.19;65.60;97646.94;1801426;79;25247;-83
2021/09/03 08:40:40;;;;;;;9.20;5.47;;;;;;;22.28;64.58;97646.63;1800404;79;25767;-85
2021/09/03 08:43:08;;;;;;;10.53;5.97;;;;;;;22.51;64.31;97645.98;1801105;79;25693;-82
2021/09/03 08:45:34;;;;;;;7.80;5.80;;;;;;;22.50;64.16;97642.13;1800349;79;25873;-82
2021/09/03 08:48:02;;;;;;;6.42;5.45;;;;;;;22.27;63.54;97655.98;1800611;78;28262;-83
2021/09/03 08:50:28;;;;;;;8.88;5.85;;;;;;;22.24;63.18;97651.03;1799129;79;25668;-81
2021/09/03 08:52:56;;;;;;;9.93;5.90;;;;;;;22.05;62.95;97650.83;1801425;79;25978;-83
2021/09/03 08:55:23;;;;;;;8.45;5.50;;;;;;;21.89;62.92;97656.05;1801081;79;25777;-82
2021/09/03 08:57:49;;;;;;;7.62;5.53;;;;;;;21.84;62.75;97645.91;1801590;79;25736;-82
2021/09/03 09:00:34;;;;;;;6.15;5.33;;;;;;;22.05;62.48;97644.51;1801466;79;27594;-90
2021/09/03 09:03:10;;;;;;;10.08;4.85;;;;;;;22.22;62.22;97639.48;1834472;77;26157;-82
2021/09/03 09:05:56;;;;;;;7.62;6.12;;;;;;;22.08;61.42;97635.16;1840879;77;25866;-89
2021/09/03 09:08:27;;;;;;;7.28;5.37;;;;;;;22.14;61.01;97640.07;1841801;77;25670;-83
2021/09/03 09:11:01;;;;;;;7.60;5.42;;;;;;;22.01;60.61;97640.66;1844205;77;25731;-81
2021/09/03 09:13:38;;;;;;;6.78;5.37;;;;;;;22.12;60.20;97636.77;1844172;77;27406;-82
2021/09/03 09:16:10;;;;;;;7.70;5.85;;;;;;;22.28;60.49;97622.70;1844083;77;25796;-81
2021/09/03 09:18:40;;;;;;;8.40;5.10;;;;;;;22.26;60.21;97622.70;1842207;77;25277;-82
2021/09/03 09:21:14;;;;;;;6.35;4.60;;;;;;;22.49;60.19;97628.11;1843262;77;25766;-82
2021/09/03 09:23:49;;;;;;;6.80;4.95;;;;;;;22.73;59.83;97628.25;1844263;77;26214;-82
2021/09/03 09:26:19;;;;;;;6.30;5.47;;;;;;;22.61;58.93;97617.59;1844162;77;27528;-81
2021/09/03 09:28:46;;;;;;;9.85;4.97;;;;;;;22.36;58.62;97621.84;1842817;77;25777;-84
2021/09/03 09:31:31;;;;;;;6.20;4.92;;;;;;;22.39;58.85;97616.60;1828351;77;25689;-82
2021/09/03 09:33:58;;;;;;;8.20;5.33;;;;;;;22.46;58.67;97618.48;1831928;77;25678;-84
2021/09/03 09:36:35;;;;;;;6.45;4.92;;;;;;;22.28;58.42;97619.13;1810754;77;26001;-81
2021/09/03 09:39:02;;;;;;;8.53;4.95;;;;;;;22.01;57.53;97614.55;1844220;77;27336;-82
2021/09/03 09:41:29;;;;;;;8.43;5.00;;;;;;;21.69;58.29;97621.20;1838395;77;25757;-81
2021/09/03 09:43:55;;;;;;;9.40;5.03;;;;;;;21.58;58.14;97617.38;1844264;77;25675;-81
2021/09/03 09:46:28;;;;;;;5.85;4.95;;;;;;;21.86;58.35;97610.70;1844378;77;25735;-82
2021/09/03 09:49:03;;;;;;;6.78;4.90;;;;;;;22.24;58.49;97601.53;1844222;77;25668;-82
2021/09/03 09:51:50;;;;;;;5.60;5.00;;;;;;;22.27;57.57;97599.06;1844206;77;27516;-84
2021/09/03 09:54:23;;;;;;;6.80;4.60;;;;;;;22.48;57.31;97595.65;1816182;77;25651;-81
2021/09/03 09:57:02;;;;;;;7.75;4.70;;;;;;;22.53;56.61;97590.13;1841395;77;25702;-81
2021/09/03 09:59:33;;;;;;;7.12;5.35;;;;;;;22.48;57.10;97593.45;1771919;79;25860;-81
2021/09/03 10:02:03;;;;;;;5.92;4.80;;;;;;;22.46;57.38;97591.56;1760008;80;26559;-81
2021/09/03 10:04:32;;;;;;;6.97;5.28;;;;;;;22.21;57.35;97591.95;1759750;80;28239;-81
2021/09/03 10:07:01;;;;;;;11.85;5.87;;;;;;;21.95;56.95;97593.66;1761168;80;25811;-81
2021/09/03 10:09:31;;;;;;;5.92;5.33;;;;;;;21.87;57.81;97593.66;1779275;80;25797;-81
2021/09/03 10:11:59;;;;;;;7.30;4.95;;;;;;;21.96;57.69;97587.06;1779096;80;26775;-81
2021/09/03 10:14:28;;;;;;;7.30;4.90;;;;;;;22.02;57.81;97585.95;1778653;80;25732;-80
2021/09/03 10:16:56;;;;;;;6.37;4.53;;;;;;;22.27;57.64;97588.06;1778639;80;27561;-81
2021/09/03 10:19:35;;;;;;;6.60;5.05;;;;;;;22.47;57.37;97585.75;1778587;80;25926;-82
2021/09/03 10:22:06;;;;;;;9.15;4.55;;;;;;;22.38;56.96;97588.01;1778871;80;26022;-83
2021/09/03 10:24:35;;;;;;;8.10;5.25;;;;;;;22.25;56.92;97582.56;1779240;80;25904;-80
2021/09/03 10:27:07;;;;;;;7.72;5.50;;;;;;;22.09;56.70;97580.45;1779126;80;25784;-83
2021/09/03 10:29:46;;;;;;;6.17;5.03;;;;;;;21.75;57.02;97585.73;1779475;80;28178;-81
2021/09/03 10:32:22;;;;;;;10.93;5.28;;;;;;;21.53;57.07;97582.48;1800006;79;25768;-81
2021/09/03 10:34:56;;;;;;;6.75;5.20;;;;;;;21.28;57.54;97577.02;1803657;79;25768;-81
2021/09/03 10:37:32;;;;;;;8.00;5.67;;;;;;;21.20;57.76;97573.74;1831605;77;25685;-81
2021/09/03 10:40:05;;;;;;;5.67;5.03;;;;;;;21.24;58.16;97568.53;1844747;77;25700;-82
2021/09/03 10:42:46;;;;;;;7.42;4.97;;;;;;;21.29;57.59;97563.56;1844710;77;27391;-83
2021/09/03 10:45:18;;;;;;;6.03;4.95;;;;;;;21.25;57.39;97565.23;1844562;77;25771;-82
2021/09/03 10:48:03;;;;;;;;;;;;;;;21.15;56.95;97564.64;1847380;77;25721;-84
2021/09/03 10:50:54;;;;;;;7.70;5.55;;;;;;;21.13;57.27;97556.67;1830224;77;26041;-82
2021/09/03 10:53:26;;;;;;;7.75;5.42;;;;;;;21.17;57.39;97532.25;1841295;77;25698;-82
2021/09/03 10:56:02;;;;;;;;;;;;;;;21.17;57.39;97532.25;1770467;79;27431;-90
2021/09/03 10:58:40;;;;;;;8.73;5.80;;;;;;;21.49;56.58;97553.95;1843574;77;26447;-81
2021/09/03 11:01:18;;;;;;;7.80;5.30;;;;;;;21.64;57.06;97517.36;1814337;77;25684;-85
2021/09/03 11:04:14;;;;;;;5.37;4.67;;;;;;;22.02;56.81;97543.36;1843011;77;25670;-82
2021/09/03 11:07:05;;;;;;;6.62;4.95;;;;;;;22.12;55.97;97516.64;1841545;77;25759;-83
2021/09/03 11:09:32;;;;;;;5.58;4.60;;;;;;;22.12;55.97;97516.64;1821630;78;27432;-81
2021/09/03 11:12:11;;;;;;;9.03;4.83;;;;;;;22.45;56.36;97532.16;1799094;77;25739;-81
2021/09/03 11:14:40;;;;;;;8.60;5.20;;;;;;;22.70;56.03;97529.79;1817461;77;25648;-82
2021/09/03 11:17:15;;;;;;;6.22;4.65;;;;;;;22.90;55.51;97537.91;1826255;78;26479;-81
2021/09/03 11:19:46;;;;;;;5.10;4.55;;;;;;;22.98;55.42;97529.03;1821381;78;25840;-81
2021/09/03 11:22:17;;;;;;;6.10;4.87;;;;;;;22.92;54.73;97530.20;1829973;78;27354;-81
2021/09/03 11:24:49;;;;;;;5.27;4.77;;;;;;;22.94;55.21;97525.23;1820483;78;25822;-86
2021/09/03 11:27:30;;;;;;;7.00;4.70;;;;;;;22.77;54.46;97524.80;1812281;77;25773;-82
2021/09/03 11:29:57;;;;;;;5.00;4.50;;;;;;;22.67;53.91;97517.97;1834831;78;25896;-82
2021/09/03 11:32:27;;;;;;;10.45;5.08;;;;;;;22.82;53.72;97520.06;1813419;78;25969;-82
2021/09/03 11:35:05;;;;;;;10.20;4.87;;;;;;;22.97;53.70;97520.50;1817848;78;28165;-84